createdAt,value
2023-02-05T00:01:01.523Z,109771.94
2023-02-05T00:03:29.958Z,110289.28
2023-02-05T00:05:58.394Z,111324.28
2023-02-05T00:08:27.640Z,111324.28
2023-02-05T00:10:57.453Z,111583.06
2023-02-05T00:13:25.900Z,111583.06
2023-02-05T00:15:54.325Z,111841.88
2023-02-05T00:18:24.095Z,112100.69
2023-02-05T00:20:52.492Z,111841.88
2023-02-05T00:23:20.928Z,111841.88
2023-02-05T00:25:49.345Z,112100.69
2023-02-05T00:28:17.665Z,112359.53
2023-02-05T00:30:46.273Z,112618.41
2023-02-05T00:33:14.755Z,112359.53
2023-02-05T00:35:45.869Z,112618.41
2023-02-05T00:38:14.989Z,113136.22
2023-02-05T00:40:43.374Z,113395.13
2023-02-05T00:43:11.884Z,113395.13
2023-02-05T00:45:40.262Z,113395.13
2023-02-05T00:48:08.828Z,113654.06
2023-02-05T00:50:37.471Z,113654.06
2023-02-05T00:53:08.513Z,113654.06
2023-02-05T00:55:36.910Z,113913.03
2023-02-05T00:58:05.517Z,113913.03
2023-02-05T01:00:34.182Z,113913.03
2023-02-05T01:03:03.138Z,113913.03
2023-02-05T01:05:31.761Z,113913.03
2023-02-05T01:08:00.360Z,113654.06
2023-02-05T01:10:30.202Z,113654.06
2023-02-05T01:12:58.716Z,113654.06
2023-02-05T01:15:27.402Z,113654.06
2023-02-05T01:17:56.034Z,114172.03
2023-02-05T01:20:24.351Z,114172.03
2023-02-05T01:22:52.737Z,114172.03
2023-02-05T01:25:21.351Z,114172.03
2023-02-05T01:27:51.099Z,114172.03
2023-02-05T01:30:19.647Z,114431.03
2023-02-05T01:32:48.113Z,114431.03
2023-02-05T01:35:16.759Z,114431.03
2023-02-05T01:37:45.128Z,114690.03
2023-02-05T01:40:16.028Z,114690.03
2023-02-05T01:42:45.006Z,114690.03
2023-02-05T01:45:51.863Z,115208.13
2023-02-05T01:48:27.782Z,115208.13
2023-02-05T01:51:00.533Z,115208.13
2023-02-05T01:53:33.059Z,115467.22
2023-02-05T01:56:04.864Z,115467.22
2023-02-05T01:58:37.230Z,115726.31
2023-02-05T02:01:05.997Z,115726.31
2023-02-05T02:03:36.793Z,115726.31
2023-02-05T02:06:05.774Z,115726.31
2023-02-05T02:08:34.325Z,115726.31
2023-02-05T02:11:05.857Z,115726.31
2023-02-05T02:13:37.113Z,115726.31
2023-02-05T02:16:08.081Z,115728.34
2023-02-05T02:18:39.477Z,115728.34
2023-02-05T02:21:42.014Z,115728.34
2023-02-05T02:24:45.417Z,115728.34
2023-02-05T02:27:43.357Z,115728.34
2023-02-05T02:30:18.402Z,115728.34
2023-02-05T02:32:54.013Z,115728.34
2023-02-05T02:35:28.940Z,115728.34
2023-02-05T02:38:03.088Z,115728.34
2023-02-05T02:40:37.392Z,115728.34
2023-02-05T02:43:11.091Z,115728.34
2023-02-05T02:45:48.289Z,115728.34
2023-02-05T02:48:19.396Z,115728.34
2023-02-05T02:50:53.304Z,115728.34
2023-02-05T02:53:25.730Z,115728.34
2023-02-05T02:55:56.780Z,115728.34
2023-02-05T02:58:29.129Z,115728.34
2023-02-05T03:01:02.531Z,115728.34
2023-02-05T03:03:33.843Z,115728.34
2023-02-05T03:06:07.195Z,115728.34
2023-02-05T03:08:39.866Z,115728.34
2023-02-05T03:11:14.546Z,115728.34
2023-02-05T03:13:46.031Z,115728.34
2023-02-05T03:16:21.369Z,115728.34
2023-02-05T03:18:50.762Z,115728.34
2023-02-05T03:21:23.826Z,115728.34
2023-02-05T03:23:52.330Z,115728.34
2023-02-05T03:26:28.674Z,115728.34
2023-02-05T03:29:07.904Z,115728.34
2023-02-05T03:31:48.172Z,115728.34
2023-02-05T03:34:28.620Z,115728.34
2023-02-05T03:37:08.994Z,115728.34
2023-02-05T03:39:53.084Z,115728.34
2023-02-05T03:42:33.290Z,115728.34
2023-02-05T03:45:23.188Z,115728.34
2023-02-05T03:48:08.229Z,115728.34
2023-02-05T03:50:41.258Z,115728.34
2023-02-05T03:53:16.699Z,115728.34
2023-02-05T03:55:49.757Z,115728.34
2023-02-05T03:58:24.624Z,115728.34
2023-02-05T04:00:53.065Z,115728.34
2023-02-05T04:03:24.150Z,115728.34
2023-02-05T04:05:52.950Z,115728.34
2023-02-05T04:08:21.430Z,115728.34
2023-02-05T04:10:54.000Z,115728.34
2023-02-05T04:13:22.938Z,115728.34
2023-02-05T04:15:51.992Z,115728.34
2023-02-05T04:18:20.936Z,115728.34
2023-02-05T04:20:51.863Z,115728.34
2023-02-05T04:23:24.261Z,115728.34
2023-02-05T04:25:55.166Z,115728.34
2023-02-05T04:28:30.186Z,115728.34
2023-02-05T04:30:59.023Z,115728.34
2023-02-05T04:33:27.493Z,115728.34
2023-02-05T04:36:00.922Z,115728.34
2023-02-05T04:38:30.280Z,115728.34
2023-02-05T04:40:59.368Z,115728.34
2023-02-05T04:43:27.938Z,115728.34
2023-02-05T04:45:56.271Z,115728.34
2023-02-05T04:48:24.731Z,115728.34
2023-02-05T04:50:53.076Z,115728.34
2023-02-05T04:53:22.869Z,115728.34
2023-02-05T04:55:51.134Z,115728.34
2023-02-05T04:58:21.126Z,115728.34
2023-02-05T05:00:49.584Z,115728.34
2023-02-05T05:03:17.891Z,115728.34
2023-02-05T05:05:47.179Z,115726.31
2023-02-05T05:08:15.543Z,115467.22
2023-02-05T05:10:45.216Z,115467.22
2023-02-05T05:13:13.550Z,115208.13
2023-02-05T05:15:41.953Z,114949.09
2023-02-05T05:18:10.260Z,114690.03
2023-02-05T05:20:38.594Z,114690.03
2023-02-05T05:23:06.959Z,114431.03
2023-02-05T05:25:35.642Z,113913.03
2023-02-05T05:28:05.927Z,113395.13
2023-02-05T05:30:34.242Z,113136.22
2023-02-05T05:33:02.581Z,113136.22
2023-02-05T05:35:31.104Z,112618.41
2023-02-05T05:38:00.057Z,112359.53
2023-02-05T05:40:45.261Z,112359.53
2023-02-05T05:43:34.584Z,112100.69
2023-02-05T05:46:03.302Z,111841.88
2023-02-05T05:48:32.277Z,111583.06
2023-02-05T05:51:00.589Z,111324.28
2023-02-05T05:53:29.134Z,110806.75
2023-02-05T05:55:57.542Z,110806.75
2023-02-05T05:58:27.381Z,110289.28
2023-02-05T06:00:56.077Z,110030.59
2023-02-05T06:03:24.587Z,110289.28
2023-02-05T06:05:52.915Z,109513.28
2023-02-05T06:08:21.241Z,108996.00
2023-02-05T06:10:49.771Z,108220.28
2023-02-05T06:13:18.109Z,107961.72
2023-02-05T06:15:49.255Z,108220.28
2023-02-05T06:18:17.713Z,108220.28
2023-02-05T06:20:46.339Z,107961.72
2023-02-05T06:23:14.919Z,107961.72
2023-02-05T06:25:43.280Z,107703.22
2023-02-05T06:28:11.875Z,107703.22
2023-02-05T06:30:40.557Z,107703.22
2023-02-05T06:33:11.644Z,107444.69
2023-02-05T06:35:40.040Z,107444.69
2023-02-05T06:38:08.529Z,107186.22
2023-02-05T06:40:36.992Z,107444.69
2023-02-05T06:43:05.332Z,107703.22
2023-02-05T06:45:34.007Z,107703.22
2023-02-05T06:48:02.472Z,108220.28
2023-02-05T06:50:32.353Z,108478.84
2023-02-05T06:53:00.722Z,108996.00
2023-02-05T06:55:29.054Z,109254.63
2023-02-05T06:57:57.504Z,109771.94
2023-02-05T07:00:26.114Z,110030.59
2023-02-05T07:02:55.267Z,110289.28
2023-02-05T07:05:23.840Z,110548.00
2023-02-05T07:07:53.602Z,110806.75
2023-02-05T07:10:22.004Z,111324.28
2023-02-05T07:12:50.299Z,111583.06
2023-02-05T07:15:18.847Z,111841.88
2023-02-05T07:17:47.208Z,112100.69
2023-02-05T07:20:16.806Z,112359.53
2023-02-05T07:22:47.180Z,112359.53
2023-02-05T07:25:16.974Z,112359.53
2023-02-05T07:27:45.349Z,112359.53
2023-02-05T07:30:15.057Z,112359.53
2023-02-05T07:32:43.486Z,112359.53
2023-02-05T07:35:12.002Z,112359.53
2023-02-05T07:37:40.611Z,112359.53
2023-02-05T07:40:10.426Z,112359.53
2023-02-05T07:42:40.100Z,111841.88
2023-02-05T07:45:10.585Z,110548.00
2023-02-05T07:47:39.069Z,108737.41
2023-02-05T07:50:08.028Z,107186.22
2023-02-05T07:52:36.385Z,107186.22
2023-02-05T07:55:04.863Z,105894.09
2023-02-05T07:57:33.282Z,103569.44
2023-02-05T08:00:02.988Z,101246.34
2023-02-05T08:02:40.609Z,98666.94
2023-02-05T08:05:09.566Z,98666.94
2023-02-05T08:07:38.611Z,98666.94
2023-02-05T08:10:07.730Z,98924.81
2023-02-05T08:12:36.147Z,97377.97
2023-02-05T08:15:06.238Z,95831.81
2023-02-05T08:17:34.643Z,95059.00
2023-02-05T08:20:07.182Z,93513.91
2023-02-05T08:22:36.844Z,92484.19
2023-02-05T08:25:07.179Z,90682.97
2023-02-05T08:27:36.454Z,88882.69
2023-02-05T08:30:07.487Z,86826.34
2023-02-05T08:32:36.037Z,87854.38
2023-02-05T08:35:04.506Z,88368.50
2023-02-05T08:37:32.876Z,84771.25
2023-02-05T08:40:01.307Z,84514.44
2023-02-05T08:42:29.835Z,85798.66
2023-02-05T08:44:59.591Z,84514.44
2023-02-05T08:47:29.492Z,85028.06
2023-02-05T08:49:58.463Z,81947.50
2023-02-05T08:52:32.588Z,82717.38
2023-02-05T08:55:02.781Z,81947.50
2023-02-05T08:57:32.227Z,81177.78
2023-02-05T09:00:00.729Z,80151.75
2023-02-05T09:02:32.132Z,81434.31
2023-02-05T09:05:08.559Z,79895.28
2023-02-05T09:07:38.821Z,80151.75
2023-02-05T09:10:08.608Z,80664.72
2023-02-05T09:12:37.409Z,80408.22
2023-02-05T09:15:06.647Z,81947.50
2023-02-05T09:17:36.823Z,82460.72
2023-02-05T09:20:06.470Z,82974.03
2023-02-05T09:22:34.916Z,82974.03
2023-02-05T09:25:03.426Z,84257.66
2023-02-05T09:27:32.021Z,84000.91
2023-02-05T09:30:00.528Z,82974.03
2023-02-05T09:32:29.025Z,84514.44
2023-02-05T09:34:58.879Z,84514.44
2023-02-05T09:37:27.381Z,85541.78
2023-02-05T09:40:19.935Z,86312.47
2023-02-05T09:42:52.247Z,87854.38
2023-02-05T09:45:38.517Z,87854.38
2023-02-05T09:48:23.860Z,89396.97
2023-02-05T09:50:54.470Z,89911.31
2023-02-05T09:53:24.007Z,89396.97
2023-02-05T09:55:52.611Z,89654.13
2023-02-05T09:58:25.531Z,90425.72
2023-02-05T10:01:00.740Z,88368.50
2023-02-05T10:03:33.351Z,87340.31
2023-02-05T10:06:22.241Z,85541.78
2023-02-05T10:08:59.227Z,82974.03
2023-02-05T10:11:32.575Z,82460.72
2023-02-05T10:14:10.564Z,79895.28
2023-02-05T10:16:54.682Z,75026.22
2023-02-05T10:19:44.148Z,73234.09
2023-02-05T10:22:22.697Z,71187.13
2023-02-05T10:25:14.251Z,65971.22
2023-02-05T10:27:54.765Z,64082.13
2023-02-05T10:30:29.681Z,62935.63
2023-02-05T10:33:00.777Z,61624.09
2023-02-05T10:35:44.360Z,62712.34
2023-02-05T10:38:18.331Z,62923.66
2023-02-05T10:40:47.329Z,63380.22
2023-02-05T10:43:23.157Z,61650.00
2023-02-05T10:45:52.833Z,61444.75
2023-02-05T10:48:34.067Z,60342.94
2023-02-05T10:51:05.139Z,59944.56
2023-02-05T10:53:36.337Z,60010.28
2023-02-05T10:56:06.372Z,58982.63
2023-02-05T10:58:41.618Z,59223.59
2023-02-05T11:01:16.881Z,58588.38
2023-02-05T11:03:53.599Z,58305.66
2023-02-05T11:06:24.573Z,58484.84
2023-02-05T11:08:54.734Z,57855.75
2023-02-05T11:11:28.161Z,57405.91
2023-02-05T11:14:00.434Z,57147.16
2023-02-05T11:16:39.424Z,56800.91
2023-02-05T11:19:21.490Z,56148.22
2023-02-05T11:21:54.325Z,55943.31
2023-02-05T11:24:30.593Z,55617.06
2023-02-05T11:27:26.663Z,55453.94
2023-02-05T11:29:55.745Z,55286.84
2023-02-05T11:32:33.807Z,55167.50
2023-02-05T11:35:20.700Z,54960.66
2023-02-05T11:37:50.955Z,54863.19
2023-02-05T11:40:24.488Z,54833.34
2023-02-05T11:43:01.283Z,54839.31
2023-02-05T11:45:31.018Z,54887.06
2023-02-05T11:48:02.500Z,54855.22
2023-02-05T11:50:33.053Z,54871.16
2023-02-05T11:53:16.383Z,54706.06
2023-02-05T11:55:47.237Z,54743.84
2023-02-05T11:58:36.173Z,54769.72
2023-02-05T12:01:07.397Z,54767.72
2023-02-05T12:03:36.710Z,54803.53
2023-02-05T12:06:15.658Z,54783.63
2023-02-05T12:08:49.374Z,54815.47
2023-02-05T12:12:01.164Z,54761.75
2023-02-05T12:14:44.482Z,54763.75
2023-02-05T12:17:29.207Z,54767.72
2023-02-05T12:20:03.033Z,54763.75
2023-02-05T12:22:54.358Z,54763.75
2023-02-05T12:25:30.018Z,54712.03
2023-02-05T12:28:15.539Z,54712.03
2023-02-05T12:31:03.648Z,54827.38
2023-02-05T12:33:45.037Z,54799.53
2023-02-05T12:36:28.113Z,54803.53
2023-02-05T12:39:10.207Z,54737.88
2023-02-05T12:41:48.794Z,54660.31
2023-02-05T12:44:32.288Z,54670.28
2023-02-05T12:47:15.948Z,54628.50
2023-02-05T12:50:04.898Z,54610.63
2023-02-05T12:52:51.340Z,54682.22
2023-02-05T12:55:33.376Z,54676.25
2023-02-05T12:58:05.039Z,54610.63
2023-02-05T13:00:42.674Z,54636.47
2023-02-05T13:03:20.228Z,54537.03
2023-02-05T13:05:53.605Z,54537.03
2023-02-05T13:08:26.415Z,54554.94
2023-02-05T13:10:58.975Z,54527.09
2023-02-05T13:13:36.995Z,54461.47
2023-02-05T13:16:11.432Z,54391.84
2023-02-05T13:18:44.689Z,54576.81
2023-02-05T13:21:35.690Z,54664.31
2023-02-05T13:24:40.894Z,54819.44
2023-02-05T13:27:38.532Z,55475.81
2023-02-05T13:30:13.730Z,56152.22
2023-02-05T13:32:49.076Z,56705.38
2023-02-05T13:35:18.099Z,57413.88
2023-02-05T13:37:59.967Z,57628.84
2023-02-05T13:40:45.269Z,58397.25
2023-02-05T13:43:52.569Z,58642.13
2023-02-05T13:46:41.295Z,59247.47
2023-02-05T13:49:44.408Z,57800.03
2023-02-05T13:52:30.463Z,57405.91
2023-02-05T13:55:13.052Z,57608.94
2023-02-05T13:58:14.250Z,56978.00
2023-02-05T14:00:45.816Z,56603.88
2023-02-05T14:03:35.259Z,56462.59
2023-02-05T14:06:23.289Z,56120.38
2023-02-05T14:08:58.040Z,55993.06
2023-02-05T14:11:26.920Z,56058.69
2023-02-05T14:14:25.054Z,55947.28
2023-02-05T14:16:55.089Z,55833.88
2023-02-05T14:19:26.927Z,55825.94
2023-02-05T14:22:07.889Z,55694.63
2023-02-05T14:24:43.602Z,55531.50
2023-02-05T14:27:49.369Z,55300.75
2023-02-05T14:30:52.987Z,55129.69
2023-02-05T14:33:36.978Z,55175.44
2023-02-05T14:36:34.359Z,54934.78
2023-02-05T14:39:07.510Z,54906.94
2023-02-05T14:41:50.793Z,54682.22
2023-02-05T14:44:23.585Z,54574.81
2023-02-05T14:47:07.217Z,54544.97
2023-02-05T14:49:43.818Z,54550.94
2023-02-05T14:52:26.882Z,54473.41
2023-02-05T14:55:02.720Z,54385.91
2023-02-05T14:57:43.852Z,54393.84
2023-02-05T15:00:29.128Z,54358.06
2023-02-05T15:03:15.455Z,54369.97
2023-02-05T15:05:51.316Z,54360.03
2023-02-05T15:08:27.620Z,54356.06
2023-02-05T15:11:06.478Z,54354.06
2023-02-05T15:13:35.189Z,54302.38
2023-02-05T15:16:24.381Z,54306.34
2023-02-05T15:18:54.192Z,54284.47
2023-02-05T15:21:29.140Z,54296.41
2023-02-05T15:24:02.691Z,54270.56
2023-02-05T15:26:42.353Z,54274.53
2023-02-05T15:29:15.879Z,54260.63
2023-02-05T15:31:49.675Z,54290.44
2023-02-05T15:34:30.264Z,54266.59
2023-02-05T15:37:05.608Z,54262.59
2023-02-05T15:39:46.446Z,54292.44
2023-02-05T15:42:20.428Z,54310.34
2023-02-05T15:44:49.364Z,54306.34
2023-02-05T15:47:22.250Z,54306.34
2023-02-05T15:49:53.337Z,54387.88
2023-02-05T15:52:24.744Z,54328.22
2023-02-05T15:54:56.284Z,54350.09
2023-02-05T15:57:29.997Z,54338.16
2023-02-05T16:00:00.711Z,54354.06
2023-02-05T16:02:30.330Z,54314.31
2023-02-05T16:05:00.174Z,54348.13
2023-02-05T16:07:30.522Z,54242.72
2023-02-05T16:10:00.879Z,54276.53
2023-02-05T16:12:31.872Z,54262.59
2023-02-05T16:15:02.591Z,54282.50
2023-02-05T16:17:40.773Z,54290.44
2023-02-05T16:20:23.950Z,54266.59
2023-02-05T16:22:58.440Z,54318.28
2023-02-05T16:25:36.109Z,54284.47
2023-02-05T16:28:14.859Z,54282.50
2023-02-05T16:30:45.615Z,54314.31
2023-02-05T16:33:25.456Z,54262.59
2023-02-05T16:35:55.200Z,54300.38
2023-02-05T16:38:24.419Z,54306.34
2023-02-05T16:40:55.796Z,54318.28
2023-02-05T16:43:32.940Z,54276.53
2023-02-05T16:46:35.414Z,54282.50
2023-02-05T16:49:05.705Z,54278.50
2023-02-05T16:51:56.397Z,54290.44
2023-02-05T16:54:31.071Z,54264.59
2023-02-05T16:57:04.113Z,54282.50
2023-02-05T16:59:38.899Z,54286.47
2023-02-05T17:02:07.724Z,54314.31
2023-02-05T17:04:38.957Z,54342.16
2023-02-05T17:07:18.641Z,54318.28
2023-02-05T17:09:47.171Z,54258.63
2023-02-05T17:12:26.847Z,54318.28
2023-02-05T17:14:58.569Z,54294.41
2023-02-05T17:17:28.032Z,54314.31
2023-02-05T17:20:18.915Z,54334.19
2023-02-05T17:23:08.918Z,54320.28
2023-02-05T17:25:39.929Z,54330.22
2023-02-05T17:28:15.327Z,54358.06
2023-02-05T17:30:46.821Z,54310.34
2023-02-05T17:33:18.314Z,54330.22
2023-02-05T17:35:46.912Z,54326.25
2023-02-05T17:38:16.021Z,54340.16
2023-02-05T17:40:45.474Z,54326.25
2023-02-05T17:43:14.008Z,54375.94
2023-02-05T17:45:44.933Z,54334.19
2023-02-05T17:48:13.618Z,54366.00
2023-02-05T17:50:42.055Z,54362.03
2023-02-05T17:53:14.137Z,54366.00
2023-02-05T17:55:42.668Z,54389.88
2023-02-05T17:58:11.402Z,54373.97
2023-02-05T18:00:39.963Z,54356.06
2023-02-05T18:03:09.961Z,54379.94
2023-02-05T18:05:38.541Z,54395.84
2023-02-05T18:08:07.573Z,54385.91
2023-02-05T18:10:37.069Z,54383.91
2023-02-05T18:13:05.842Z,54385.91
2023-02-05T18:15:34.296Z,54364.03
2023-02-05T18:18:02.772Z,54373.97
2023-02-05T18:20:32.724Z,54399.81
2023-02-05T18:23:03.130Z,54405.78
2023-02-05T18:25:31.644Z,54445.56
2023-02-05T18:28:00.247Z,54413.72
2023-02-05T18:30:29.809Z,54455.50
2023-02-05T18:32:58.333Z,54499.25
2023-02-05T18:35:26.847Z,54493.28
2023-02-05T18:37:56.760Z,54451.53
2023-02-05T18:40:25.454Z,54513.16
2023-02-05T18:42:59.713Z,54419.69
2023-02-05T18:45:28.150Z,54443.56
2023-02-05T18:47:56.605Z,54461.47
2023-02-05T18:50:28.003Z,54453.50
2023-02-05T18:52:57.884Z,54457.47
2023-02-05T18:55:26.976Z,54455.50
2023-02-05T18:57:55.412Z,54451.53
2023-02-05T19:00:24.097Z,54445.56
2023-02-05T19:02:52.718Z,54425.66
2023-02-05T19:05:21.264Z,54405.78
2023-02-05T19:07:52.219Z,54413.72
2023-02-05T19:10:22.327Z,54449.53
2023-02-05T19:12:53.054Z,54419.69
2023-02-05T19:15:21.646Z,54443.56
2023-02-05T19:17:50.208Z,54421.69
2023-02-05T19:20:19.238Z,54433.63
2023-02-05T19:22:47.661Z,54457.47
2023-02-05T19:25:16.300Z,54473.41
2023-02-05T19:27:46.309Z,54465.44
2023-02-05T19:30:15.262Z,54443.56
2023-02-05T19:32:43.624Z,54409.75
2023-02-05T19:35:12.138Z,54445.56
2023-02-05T19:37:40.675Z,54431.63
2023-02-05T19:40:12.505Z,54457.47
2023-02-05T19:42:44.726Z,54481.34
2023-02-05T19:45:15.274Z,54419.69
2023-02-05T19:47:43.917Z,54459.47
2023-02-05T19:50:12.424Z,54451.53
2023-02-05T19:52:41.037Z,54503.22
2023-02-05T19:55:09.690Z,54465.44
2023-02-05T19:57:40.640Z,54457.47
2023-02-05T20:00:10.673Z,54481.34
2023-02-05T20:02:43.532Z,54475.38
2023-02-05T20:05:12.472Z,54445.56
2023-02-05T20:07:41.269Z,54509.19
2023-02-05T20:10:10.531Z,54489.31
2023-02-05T20:12:39.089Z,54517.16
2023-02-05T20:15:08.860Z,54513.16
2023-02-05T20:17:37.900Z,54580.78
2023-02-05T20:20:15.723Z,54596.69
2023-02-05T20:22:49.811Z,54596.69
2023-02-05T20:25:18.599Z,54604.66
2023-02-05T20:27:47.237Z,54640.44
2023-02-05T20:30:35.997Z,54650.38
2023-02-05T20:33:04.915Z,54700.09
2023-02-05T20:35:36.224Z,54725.97
2023-02-05T20:38:04.813Z,54771.69
2023-02-05T20:40:33.491Z,54696.13
2023-02-05T20:43:02.645Z,54775.69
2023-02-05T20:45:32.925Z,54902.97
2023-02-05T20:48:02.283Z,54934.78
2023-02-05T20:50:30.765Z,54889.03
2023-02-05T20:53:00.796Z,54942.75
2023-02-05T20:55:29.890Z,54954.69
2023-02-05T20:57:58.294Z,54918.88
2023-02-05T21:00:27.589Z,55014.34
2023-02-05T21:02:56.194Z,55227.16
2023-02-05T21:05:24.754Z,55507.63
2023-02-05T21:07:53.170Z,55443.97
2023-02-05T21:10:22.977Z,55646.88
2023-02-05T21:12:51.486Z,55947.28
2023-02-05T21:15:19.865Z,55967.19
2023-02-05T21:17:48.740Z,55959.22
2023-02-05T21:20:18.059Z,55971.16
2023-02-05T21:22:46.736Z,56052.72
2023-02-05T21:25:15.316Z,56030.84
2023-02-05T21:27:45.086Z,55989.06
2023-02-05T21:30:14.385Z,55999.03
2023-02-05T21:32:42.814Z,56006.97
2023-02-05T21:35:11.470Z,55873.69
2023-02-05T21:37:40.058Z,55887.59
2023-02-05T21:40:09.896Z,55849.81
2023-02-05T21:42:38.554Z,55845.81
2023-02-05T21:45:09.610Z,55770.22
2023-02-05T21:47:38.320Z,55680.72
2023-02-05T21:50:08.204Z,55778.19
2023-02-05T21:52:36.988Z,55734.41
2023-02-05T21:55:06.177Z,55821.94
2023-02-05T21:57:35.723Z,55722.47
2023-02-05T22:00:04.891Z,55702.59
2023-02-05T22:02:42.129Z,55700.59
2023-02-05T22:05:11.040Z,55786.16
2023-02-05T22:07:39.515Z,55843.84
2023-02-05T22:10:08.270Z,55957.25
2023-02-05T22:12:37.080Z,56038.81
2023-02-05T22:15:06.254Z,56635.72
2023-02-05T22:17:34.792Z,56985.97
2023-02-05T22:20:04.946Z,56717.31
2023-02-05T22:22:33.348Z,56677.50
2023-02-05T22:25:01.881Z,56717.31
2023-02-05T22:27:30.663Z,56400.94
2023-02-05T22:29:59.417Z,56446.69
2023-02-05T22:32:29.250Z,56418.84
2023-02-05T22:35:00.924Z,56315.38
2023-02-05T22:37:31.011Z,56512.34
2023-02-05T22:40:00.137Z,56629.75
2023-02-05T22:42:28.601Z,56653.63
2023-02-05T22:44:57.094Z,56556.13
2023-02-05T22:47:25.522Z,56379.03
2023-02-05T22:49:53.940Z,56514.34
2023-02-05T22:52:22.354Z,56639.72
2023-02-05T22:54:52.274Z,56607.88
2023-02-05T22:57:20.626Z,56542.19
2023-02-05T22:59:48.974Z,56796.91
2023-02-05T23:02:17.368Z,56870.53
2023-02-05T23:04:45.715Z,56806.88
2023-02-05T23:07:14.072Z,56858.59
2023-02-05T23:09:42.420Z,57051.63
2023-02-05T23:12:12.134Z,57109.34
2023-02-05T23:14:40.426Z,57336.25
2023-02-05T23:17:08.706Z,57137.22
2023-02-05T23:19:37.076Z,56771.03
2023-02-05T23:22:09.666Z,56540.22
2023-02-05T23:24:38.192Z,57513.38
2023-02-05T23:27:06.868Z,59014.50
2023-02-05T23:29:37.754Z,58433.09
2023-02-05T23:32:07.128Z,57425.81
2023-02-05T23:34:35.667Z,57314.34
2023-02-05T23:37:04.060Z,57260.63
2023-02-05T23:39:32.396Z,57796.03
2023-02-05T23:42:00.763Z,57684.56
2023-02-05T23:44:29.132Z,57272.56
2023-02-05T23:46:59.979Z,57354.16
2023-02-05T23:49:28.516Z,57772.16
2023-02-05T23:51:57.202Z,58208.13
2023-02-05T23:54:25.785Z,57786.09
2023-02-05T23:56:54.216Z,57368.09
2023-02-05T23:59:23.006Z,57489.50
